createdAt,value
2017-06-24T00:00:10.562Z,55.9
2017-06-24T00:00:36.659Z,55.98
2017-06-24T00:01:02.750Z,56.07
2017-06-24T00:01:28.858Z,56.16
2017-06-24T00:01:54.960Z,56.16
2017-06-24T00:02:21.053Z,56.16
2017-06-24T00:02:47.154Z,56.56
2017-06-24T00:03:13.260Z,56.16
2017-06-24T00:03:39.348Z,56.16
2017-06-24T00:04:05.448Z,56.56
2017-06-24T00:04:31.556Z,56.46
2017-06-24T00:04:57.646Z,56.36
2017-06-24T00:05:23.792Z,56.16
2017-06-24T00:05:49.896Z,56.26
2017-06-24T00:06:16.018Z,56.36
2017-06-24T00:06:42.136Z,56.26
2017-06-24T00:07:08.264Z,56.56
2017-06-24T00:07:34.366Z,56.16
2017-06-24T00:08:00.472Z,55.88
2017-06-24T00:08:26.615Z,56.56
2017-06-24T00:08:52.712Z,55.98
2017-06-24T00:09:18.821Z,56.07
2017-06-24T00:09:44.914Z,56.26
2017-06-24T00:10:11.032Z,56.16
2017-06-24T00:10:37.170Z,56.07
2017-06-24T00:11:03.266Z,56.46
2017-06-24T00:11:29.356Z,56.16
2017-06-24T00:11:55.490Z,56.43
2017-06-24T00:12:21.585Z,56.26
2017-06-24T00:12:47.693Z,56.26
2017-06-24T00:13:13.786Z,56.46
2017-06-24T00:13:39.878Z,56.16
2017-06-24T00:14:06.017Z,56.07
2017-06-24T00:14:32.141Z,56.07
2017-06-24T00:14:58.234Z,56.16
2017-06-24T00:15:24.366Z,55.98
2017-06-24T00:15:50.467Z,56.07
2017-06-24T00:16:16.558Z,55.98
2017-06-24T00:16:42.685Z,56.16
2017-06-24T00:17:08.792Z,55.88
2017-06-24T00:17:34.939Z,55.88
2017-06-24T00:18:01.035Z,55.88
2017-06-24T00:18:27.128Z,56.07
2017-06-24T00:18:53.237Z,56.16
2017-06-24T00:19:19.364Z,56.07
2017-06-24T00:19:45.456Z,56.16
2017-06-24T00:20:11.610Z,56.07
2017-06-24T00:20:37.742Z,56.04
2017-06-24T00:21:03.826Z,55.94
2017-06-24T00:21:29.925Z,56.14
2017-06-24T00:21:56.057Z,55.85
2017-06-24T00:22:22.150Z,56.07
2017-06-24T00:22:48.248Z,55.94
2017-06-24T00:23:14.398Z,55.98
2017-06-24T00:23:40.530Z,55.85
2017-06-24T00:24:06.667Z,56.07
2017-06-24T00:24:32.757Z,55.94
2017-06-24T00:24:58.858Z,56.26
2017-06-24T00:25:24.964Z,56.04
2017-06-24T00:25:51.054Z,55.94
2017-06-24T00:26:17.152Z,56.16
2017-06-24T00:26:43.260Z,56.16
2017-06-24T00:27:09.378Z,56.07
2017-06-24T00:27:35.471Z,55.98
2017-06-24T00:28:01.580Z,55.98
2017-06-24T00:28:27.680Z,55.98
2017-06-24T00:28:53.783Z,55.78
2017-06-24T00:29:19.902Z,55.85
2017-06-24T00:29:45.999Z,56.43
2017-06-24T00:30:12.134Z,56.52
2017-06-24T00:30:38.230Z,56.52
2017-06-24T00:31:04.322Z,56.36
2017-06-24T00:31:30.430Z,56.52
2017-06-24T00:31:56.555Z,56.16
2017-06-24T00:32:22.671Z,56.04
2017-06-24T00:32:48.806Z,56.46
2017-06-24T00:33:14.906Z,57.04
2017-06-24T00:33:41.020Z,56.52
2017-06-24T00:34:07.150Z,56.43
2017-06-24T00:34:33.239Z,56.91
2017-06-24T00:34:59.350Z,57.01
2017-06-24T00:35:25.446Z,56.91
2017-06-24T00:35:51.537Z,56.81
2017-06-24T00:36:17.672Z,57.39
2017-06-24T00:36:43.772Z,57.49
2017-06-24T00:37:09.862Z,57.59
2017-06-24T00:37:35.993Z,57.29
2017-06-24T00:38:02.099Z,57.29
2017-06-24T00:38:28.187Z,57.65
2017-06-24T00:38:54.288Z,58.17
2017-06-24T00:39:20.394Z,57.39
2017-06-24T00:39:46.487Z,57.39
2017-06-24T00:40:12.589Z,57.59
2017-06-24T00:40:38.680Z,57.49
2017-06-24T00:41:04.809Z,57.1
2017-06-24T00:41:30.917Z,57.01
2017-06-24T00:41:57.005Z,57.01
2017-06-24T00:42:23.127Z,56.91
2017-06-24T00:42:49.233Z,56.91
2017-06-24T00:43:15.327Z,57.01
2017-06-24T00:43:41.419Z,56.91
2017-06-24T00:44:07.528Z,56.72
2017-06-24T00:44:33.624Z,56.72
2017-06-24T00:44:59.739Z,57.01
2017-06-24T00:45:25.875Z,57.27
2017-06-24T00:45:51.997Z,57.65
2017-06-24T00:46:18.107Z,57.78
2017-06-24T00:46:44.215Z,57.94
2017-06-24T00:47:10.317Z,57.46
2017-06-24T00:47:36.410Z,57.85
2017-06-24T00:48:02.511Z,57.37
2017-06-24T00:48:28.619Z,58.52
2017-06-24T00:48:54.707Z,58.23
2017-06-24T00:49:20.805Z,57.65
2017-06-24T00:49:46.912Z,58.04
2017-06-24T00:50:13.056Z,57.46
2017-06-24T00:50:39.200Z,58.04
2017-06-24T00:51:05.297Z,57.97
2017-06-24T00:51:31.401Z,58.33
2017-06-24T00:51:57.536Z,58.33
2017-06-24T00:52:23.625Z,57.85
2017-06-24T00:52:49.728Z,58.26
2017-06-24T00:53:15.831Z,58.17
2017-06-24T00:53:41.950Z,58.04
2017-06-24T00:54:08.047Z,57.97
2017-06-24T00:54:34.155Z,58.07
2017-06-24T00:55:00.275Z,58.23
2017-06-24T00:55:26.393Z,58.42
2017-06-24T00:55:52.552Z,58.62
2017-06-24T00:56:18.651Z,59.03
2017-06-24T00:56:44.755Z,58.65
2017-06-24T00:57:10.872Z,58.42
2017-06-24T00:57:36.971Z,58.62
2017-06-24T00:58:03.105Z,58.75
2017-06-24T00:58:29.200Z,58.62
2017-06-24T00:58:55.291Z,58.62
2017-06-24T00:59:21.399Z,58.62
2017-06-24T00:59:47.498Z,58.72
2017-06-24T01:00:13.613Z,59.1
2017-06-24T01:00:39.719Z,59
2017-06-24T01:01:05.820Z,59.2
2017-06-24T01:01:31.912Z,58.91
2017-06-24T01:01:58.014Z,58.91
2017-06-24T01:02:24.105Z,58.91
2017-06-24T01:02:50.213Z,59.2
2017-06-24T01:03:16.312Z,59.87
2017-06-24T01:03:42.408Z,59.1
2017-06-24T01:04:08.507Z,58.91
2017-06-24T01:04:34.607Z,59
2017-06-24T01:05:00.719Z,59.3
2017-06-24T01:05:26.822Z,59.2
2017-06-24T01:05:52.958Z,59
2017-06-24T01:06:19.045Z,58.81
2017-06-24T01:06:45.147Z,59.2
2017-06-24T01:07:11.282Z,59.1
2017-06-24T01:07:37.374Z,59
2017-06-24T01:08:03.472Z,59
2017-06-24T01:08:29.578Z,59.2
2017-06-24T01:08:55.695Z,59
2017-06-24T01:09:21.810Z,58.72
2017-06-24T01:09:47.950Z,59
2017-06-24T01:10:14.075Z,59
2017-06-24T01:10:40.165Z,58.81
2017-06-24T01:11:06.273Z,59.2
2017-06-24T01:11:32.374Z,58.91
2017-06-24T01:11:58.464Z,58.62
2017-06-24T01:12:24.568Z,58.81
2017-06-24T01:12:50.683Z,59
2017-06-24T01:13:16.819Z,57.94
2017-06-24T01:13:42.913Z,58.42
2017-06-24T01:14:09.005Z,58.23
2017-06-24T01:14:35.110Z,58.52
2017-06-24T01:15:01.238Z,58.04
2017-06-24T01:15:27.328Z,58.91
2017-06-24T01:15:53.458Z,57.94
2017-06-24T01:16:19.565Z,57.92
2017-06-24T01:16:45.654Z,57.94
2017-06-24T01:17:11.800Z,58.01
2017-06-24T01:17:37.908Z,58.23
2017-06-24T01:18:03.999Z,58.33
2017-06-24T01:18:30.121Z,58.4
2017-06-24T01:18:56.217Z,57.65
2017-06-24T01:19:22.322Z,58.49
2017-06-24T01:19:48.429Z,58.11
2017-06-24T01:20:14.516Z,58.01
2017-06-24T01:20:40.619Z,58.2
2017-06-24T01:21:06.752Z,57.92
2017-06-24T01:21:32.843Z,57.82
2017-06-24T01:21:58.989Z,58.11
2017-06-24T01:22:25.154Z,58.01
2017-06-24T01:22:51.270Z,57.92
2017-06-24T01:23:17.361Z,58.11
2017-06-24T01:23:43.470Z,58.2
2017-06-24T01:24:09.569Z,58.4
2017-06-24T01:24:35.669Z,57.92
2017-06-24T01:25:01.784Z,58.2
2017-06-24T01:25:27.884Z,57.92
2017-06-24T01:25:53.989Z,58.01
2017-06-24T01:26:20.085Z,58.01
2017-06-24T01:26:46.177Z,58.01
2017-06-24T01:27:12.308Z,58.3
2017-06-24T01:27:38.433Z,58.59
2017-06-24T01:28:04.526Z,58.4
2017-06-24T01:28:30.657Z,57.72
2017-06-24T01:28:56.756Z,57.72
2017-06-24T01:29:22.873Z,57.72
2017-06-24T01:29:48.977Z,57.82
2017-06-24T01:30:15.083Z,57.92
2017-06-24T01:30:41.172Z,58.4
2017-06-24T01:31:07.272Z,57.53
2017-06-24T01:31:33.378Z,58.01
2017-06-24T01:31:59.468Z,57.92
2017-06-24T01:32:25.565Z,57.62
2017-06-24T01:32:51.673Z,57.92
2017-06-24T01:33:17.766Z,57.92
2017-06-24T01:33:43.883Z,58.11
2017-06-24T01:34:10.020Z,58.3
2017-06-24T01:34:36.169Z,57.43
2017-06-24T01:35:02.262Z,57.89
2017-06-24T01:35:28.367Z,57.89
2017-06-24T01:35:54.464Z,58.08
2017-06-24T01:36:20.571Z,57.89
2017-06-24T01:36:46.665Z,58.08
2017-06-24T01:37:12.758Z,58.27
2017-06-24T01:37:38.869Z,58.08
2017-06-24T01:38:04.993Z,57.89
2017-06-24T01:38:31.086Z,57.89
2017-06-24T01:38:57.193Z,58.75
2017-06-24T01:39:23.292Z,57.98
2017-06-24T01:39:49.382Z,57.89
2017-06-24T01:40:15.486Z,57.98
2017-06-24T01:40:41.594Z,57.89
2017-06-24T01:41:07.717Z,57.89
2017-06-24T01:41:33.816Z,57.89
2017-06-24T01:41:59.905Z,58.37
2017-06-24T01:42:26.012Z,58.17
2017-06-24T01:42:52.141Z,58.08
2017-06-24T01:43:18.233Z,58.17
2017-06-24T01:43:44.365Z,58.08
2017-06-24T01:44:10.471Z,58.56
2017-06-24T01:44:36.557Z,58.01
2017-06-24T01:45:02.657Z,57.98
2017-06-24T01:45:28.762Z,58.4
2017-06-24T01:45:54.852Z,57.79
2017-06-24T01:46:20.975Z,58.49
2017-06-24T01:46:47.074Z,58.08
2017-06-24T01:47:13.201Z,57.31
2017-06-24T01:47:39.360Z,57.98
2017-06-24T01:48:05.449Z,58.08
2017-06-24T01:48:31.547Z,57.98
2017-06-24T01:48:57.653Z,58.17
2017-06-24T01:49:23.745Z,57.69
2017-06-24T01:49:49.838Z,58.08
2017-06-24T01:50:15.945Z,57.98
2017-06-24T01:50:42.039Z,58.27
2017-06-24T01:51:08.130Z,57.89
2017-06-24T01:51:34.294Z,58.75
2017-06-24T01:52:00.417Z,58.08
2017-06-24T01:52:26.521Z,58.37
2017-06-24T01:52:52.611Z,58.75
2017-06-24T01:53:18.730Z,58.27
2017-06-24T01:53:44.895Z,58.85
2017-06-24T01:54:11.015Z,58.75
2017-06-24T01:54:37.107Z,58.37
2017-06-24T01:55:03.270Z,57.89
2017-06-24T01:55:29.366Z,58.17
2017-06-24T01:55:55.458Z,57.98
2017-06-24T01:56:21.587Z,58.08
2017-06-24T01:56:47.690Z,57.89
2017-06-24T01:57:13.781Z,58.08
2017-06-24T01:57:39.908Z,58.65
2017-06-24T01:58:06.025Z,57.89
2017-06-24T01:58:32.135Z,58.08
2017-06-24T01:58:58.231Z,58.08
2017-06-24T01:59:24.320Z,58.37
2017-06-24T01:59:50.456Z,58.56
2017-06-24T02:00:16.557Z,57.89
2017-06-24T02:00:42.673Z,58.65
2017-06-24T02:01:08.799Z,58.95
2017-06-24T02:01:34.902Z,58.56
2017-06-24T02:02:00.991Z,58.47
2017-06-24T02:02:27.092Z,58.56
2017-06-24T02:02:53.198Z,58.92
2017-06-24T02:03:19.314Z,59.23
2017-06-24T02:03:45.416Z,59.23
2017-06-24T02:04:11.508Z,58.65
2017-06-24T02:04:37.636Z,58.65
2017-06-24T02:05:03.743Z,58.47
2017-06-24T02:05:29.830Z,58.56
2017-06-24T02:05:55.931Z,58.56
2017-06-24T02:06:22.129Z,58.75
2017-06-24T02:06:48.334Z,58.56
2017-06-24T02:07:14.430Z,58.85
2017-06-24T02:07:40.563Z,58.56
2017-06-24T02:08:06.659Z,58.56
2017-06-24T02:08:32.751Z,58.47
2017-06-24T02:08:58.879Z,58.47
2017-06-24T02:09:25.013Z,58.65
2017-06-24T02:09:51.172Z,58.56
2017-06-24T02:10:17.289Z,58.56
2017-06-24T02:10:43.409Z,59.14
2017-06-24T02:11:09.550Z,59.04
2017-06-24T02:11:35.814Z,58.85
2017-06-24T02:12:01.905Z,58.85
2017-06-24T02:12:28.040Z,58.37
2017-06-24T02:12:54.166Z,58.47
2017-06-24T02:13:26.525Z,58.37
2017-06-24T02:13:52.656Z,58.56
2017-06-24T02:14:18.756Z,58.56
2017-06-24T02:14:44.847Z,58.95
2017-06-24T02:15:10.949Z,59.14
2017-06-24T02:15:37.085Z,59.04
2017-06-24T02:16:03.173Z,58.56
2017-06-24T02:16:29.275Z,58.17
2017-06-24T02:16:55.382Z,58.08
2017-06-24T02:17:21.501Z,58.95
2017-06-24T02:17:47.620Z,58.65
2017-06-24T02:18:13.703Z,58.95
2017-06-24T02:18:39.822Z,58.56
2017-06-24T02:19:05.938Z,58.56
2017-06-24T02:19:32.048Z,58.37
2017-06-24T02:19:58.173Z,58.75
2017-06-24T02:20:24.277Z,58.65
2017-06-24T02:20:50.370Z,58.37
2017-06-24T02:21:16.468Z,58.65
2017-06-24T02:21:42.601Z,58.56
2017-06-24T02:22:08.721Z,58.27
2017-06-24T02:22:34.862Z,58.17
2017-06-24T02:23:00.999Z,58.37
2017-06-24T02:23:27.148Z,58.85
2017-06-24T02:23:53.238Z,58.27
2017-06-24T02:24:19.342Z,58.08
2017-06-24T02:24:45.470Z,57.98
2017-06-24T02:25:11.567Z,58.37
2017-06-24T02:25:37.672Z,58.17
2017-06-24T02:26:03.765Z,58.75
2017-06-24T02:26:29.874Z,58.56
2017-06-24T02:26:55.973Z,58.95
2017-06-24T02:27:22.064Z,58.75
2017-06-24T02:27:48.170Z,58.85
2017-06-24T02:28:14.298Z,58.85
2017-06-24T02:28:40.391Z,58.56
2017-06-24T02:29:06.493Z,58.56
2017-06-24T02:29:32.602Z,58.65
2017-06-24T02:29:58.688Z,58.56
2017-06-24T02:30:24.813Z,59.04
2017-06-24T02:30:50.920Z,58.85
2017-06-24T02:31:17.010Z,58.75
2017-06-24T02:31:43.142Z,58.92
2017-06-24T02:32:09.236Z,58.92
2017-06-24T02:32:35.363Z,58.92
2017-06-24T02:33:01.496Z,59.33
2017-06-24T02:33:27.582Z,58.85
2017-06-24T02:33:53.681Z,58.82
2017-06-24T02:34:19.841Z,59.2
2017-06-24T02:34:45.983Z,59.11
2017-06-24T02:35:12.107Z,59.2
2017-06-24T02:35:38.238Z,59.88
2017-06-24T02:36:04.362Z,59.78
2017-06-24T02:36:30.474Z,59.78
2017-06-24T02:36:56.632Z,59.78
2017-06-24T02:37:22.732Z,59.78
2017-06-24T02:37:48.866Z,59.59
2017-06-24T02:38:14.958Z,59.94
2017-06-24T02:38:41.057Z,60.65
2017-06-24T02:39:07.188Z,60.24
2017-06-24T02:39:33.304Z,60.04
2017-06-24T02:39:59.394Z,59.85
2017-06-24T02:40:25.505Z,59.94
2017-06-24T02:40:51.631Z,60.04
2017-06-24T02:41:17.721Z,60.33
2017-06-24T02:41:43.855Z,60.52
2017-06-24T02:42:09.952Z,60.24
2017-06-24T02:42:36.077Z,60.14
2017-06-24T02:43:02.220Z,60.72
2017-06-24T02:43:28.337Z,60.72
2017-06-24T02:43:54.443Z,60.24
2017-06-24T02:44:20.540Z,60.24
2017-06-24T02:44:46.630Z,60.42
2017-06-24T02:45:12.789Z,60.52
2017-06-24T02:45:38.916Z,60.52
2017-06-24T02:46:05.005Z,60.14
2017-06-24T02:46:31.108Z,60.33
2017-06-24T02:46:57.217Z,60.33
2017-06-24T02:47:23.301Z,60.52
2017-06-24T02:47:49.401Z,60.42
2017-06-24T02:48:15.520Z,60.33
2017-06-24T02:48:41.626Z,60.72
2017-06-24T02:49:07.726Z,60.62
2017-06-24T02:49:33.841Z,60.52
2017-06-24T02:49:59.945Z,60.62
2017-06-24T02:50:26.053Z,60.91
2017-06-24T02:50:52.141Z,60.72
2017-06-24T02:51:18.240Z,61.49
2017-06-24T02:51:44.345Z,61.58
2017-06-24T02:52:10.434Z,61.1
2017-06-24T02:52:36.554Z,60.72
2017-06-24T02:53:02.661Z,61
2017-06-24T02:53:28.810Z,61
2017-06-24T02:53:54.914Z,61.49
2017-06-24T02:54:21.000Z,61
2017-06-24T02:54:47.130Z,61.36
2017-06-24T02:55:13.238Z,62.03
2017-06-24T02:55:39.356Z,61.58
2017-06-24T02:56:05.455Z,61.94
2017-06-24T02:56:31.590Z,61.68
2017-06-24T02:56:57.682Z,61.36
2017-06-24T02:57:23.772Z,61.19
2017-06-24T02:57:49.883Z,61.26
2017-06-24T02:58:15.980Z,61.36
2017-06-24T02:58:42.095Z,61.58
2017-06-24T02:59:08.200Z,61.46
2017-06-24T02:59:34.299Z,61.19
2017-06-24T03:00:00.389Z,61.26
2017-06-24T03:00:26.489Z,61.74
2017-06-24T03:00:52.596Z,61.58
2017-06-24T03:01:18.732Z,61.36
2017-06-24T03:01:44.857Z,61.36
2017-06-24T03:02:10.963Z,61.65
2017-06-24T03:02:37.052Z,61.94
2017-06-24T03:03:03.151Z,62.03
2017-06-24T03:03:29.283Z,62.23
2017-06-24T03:03:55.378Z,62.41
2017-06-24T03:04:21.470Z,62.77
2017-06-24T03:04:47.571Z,62.61
2017-06-24T03:05:13.672Z,62.8
2017-06-24T03:05:39.804Z,63.09
2017-06-24T03:06:05.892Z,62.51
2017-06-24T03:06:31.988Z,62.99
2017-06-24T03:06:58.095Z,62.8
2017-06-24T03:07:24.189Z,62.71
2017-06-24T03:07:50.278Z,62.71
2017-06-24T03:08:16.387Z,62.61
2017-06-24T03:08:42.486Z,62.9
2017-06-24T03:09:08.624Z,62.99
2017-06-24T03:09:34.731Z,62.9
2017-06-24T03:10:00.832Z,62.23
2017-06-24T03:10:26.931Z,62.32
2017-06-24T03:10:53.053Z,62.32
2017-06-24T03:11:19.144Z,62.23
2017-06-24T03:11:45.254Z,62.23
2017-06-24T03:12:11.354Z,62.61
2017-06-24T03:12:37.443Z,62.99
2017-06-24T03:13:03.549Z,62.51
2017-06-24T03:13:29.674Z,62.8
2017-06-24T03:13:55.765Z,62.9
2017-06-24T03:14:21.869Z,62.99
2017-06-24T03:14:47.976Z,62.23
2017-06-24T03:15:14.066Z,62.13
2017-06-24T03:15:40.166Z,62.32
2017-06-24T03:16:06.259Z,62.32
2017-06-24T03:16:32.367Z,62.23
2017-06-24T03:16:58.466Z,62.41
2017-06-24T03:17:24.604Z,62.32
2017-06-24T03:17:50.705Z,62.61
2017-06-24T03:18:16.840Z,62.32
2017-06-24T03:18:42.929Z,62.41
2017-06-24T03:19:09.032Z,62.13
2017-06-24T03:19:35.165Z,62.8
2017-06-24T03:20:01.254Z,62.32
2017-06-24T03:20:27.349Z,62.61
2017-06-24T03:20:53.483Z,62.32
2017-06-24T03:21:19.578Z,62.32
2017-06-24T03:21:45.709Z,62.41
2017-06-24T03:22:11.796Z,62.51
2017-06-24T03:22:37.898Z,62.23
2017-06-24T03:23:04.005Z,62.9
2017-06-24T03:23:30.145Z,62.51
2017-06-24T03:23:56.243Z,62.61
2017-06-24T03:24:22.350Z,63.09
2017-06-24T03:24:48.447Z,62.96
2017-06-24T03:25:14.536Z,63.25
2017-06-24T03:25:40.645Z,63.35
2017-06-24T03:26:06.741Z,63.15
2017-06-24T03:26:32.831Z,63.28
2017-06-24T03:26:58.937Z,63.09
2017-06-24T03:27:25.057Z,63.28
2017-06-24T03:27:51.221Z,63.09
2017-06-24T03:28:17.312Z,62.99
2017-06-24T03:28:43.425Z,63.28
2017-06-24T03:29:09.563Z,63.38
2017-06-24T03:29:35.689Z,62.99
2017-06-24T03:30:01.778Z,63.09
2017-06-24T03:30:27.883Z,62.99
2017-06-24T03:30:53.981Z,62.51
2017-06-24T03:31:20.070Z,62.8
2017-06-24T03:31:46.170Z,62.99
2017-06-24T03:32:12.275Z,62.61
2017-06-24T03:32:38.366Z,62.51
2017-06-24T03:33:04.488Z,62.71
2017-06-24T03:33:30.578Z,62.8
2017-06-24T03:33:56.682Z,62.9
2017-06-24T03:34:22.781Z,62.99
2017-06-24T03:34:48.870Z,62.71
2017-06-24T03:35:14.970Z,62.99
2017-06-24T03:35:41.076Z,62.9
2017-06-24T03:36:07.186Z,63.09
2017-06-24T03:36:33.286Z,63.38
2017-06-24T03:36:59.420Z,63.09
2017-06-24T03:37:25.536Z,63.28
2017-06-24T03:37:51.652Z,63.09
2017-06-24T03:38:17.749Z,63.28
2017-06-24T03:38:43.876Z,62.61
2017-06-24T03:39:09.984Z,62.71
2017-06-24T03:39:36.071Z,62.41
2017-06-24T03:40:02.174Z,62.41
2017-06-24T03:40:28.332Z,62.71
2017-06-24T03:40:54.449Z,62.71
2017-06-24T03:41:20.573Z,62.71
2017-06-24T03:41:46.732Z,62.51
2017-06-24T03:42:12.827Z,62.51
2017-06-24T03:42:38.917Z,62.96
2017-06-24T03:43:05.026Z,63.15
2017-06-24T03:43:31.124Z,63.38
2017-06-24T03:43:57.239Z,63.38
2017-06-24T03:44:23.374Z,63.38
2017-06-24T03:44:49.475Z,63.09
2017-06-24T03:45:15.566Z,63.09
2017-06-24T03:45:41.667Z,62.99
2017-06-24T03:46:07.775Z,63.18
2017-06-24T03:46:33.864Z,63.18
2017-06-24T03:46:59.961Z,62.99
2017-06-24T03:47:26.095Z,62.99
2017-06-24T03:47:52.187Z,63.18
2017-06-24T03:48:18.284Z,63.48
2017-06-24T03:48:44.417Z,63.45
2017-06-24T03:49:10.511Z,63.25
2017-06-24T03:49:36.617Z,63.45
2017-06-24T03:50:02.703Z,63.64
2017-06-24T03:50:28.799Z,63.64
2017-06-24T03:50:54.935Z,64.02
2017-06-24T03:51:21.053Z,63.83
2017-06-24T03:51:47.149Z,64.02
2017-06-24T03:52:13.256Z,64.02
2017-06-24T03:52:39.349Z,64.02
2017-06-24T03:53:05.438Z,63.83
2017-06-24T03:53:31.600Z,63.73
2017-06-24T03:53:57.724Z,64.02
2017-06-24T03:54:23.813Z,64.12
2017-06-24T03:54:49.945Z,64.02
2017-06-24T03:55:16.039Z,64.31
2017-06-24T03:55:42.203Z,64.22
2017-06-24T03:56:08.325Z,64.22
2017-06-24T03:56:34.409Z,64.12
2017-06-24T03:57:00.520Z,63.83
2017-06-24T03:57:26.645Z,64.31
2017-06-24T03:57:52.736Z,64.12
2017-06-24T03:58:18.841Z,64.22
2017-06-24T03:58:44.941Z,64.12
2017-06-24T03:59:11.030Z,64.02
2017-06-24T03:59:37.134Z,64.31
2017-06-24T04:00:03.267Z,64.4
2017-06-24T04:00:29.361Z,65.08
2017-06-24T04:00:55.457Z,65.08
2017-06-24T04:01:21.548Z,64.76
2017-06-24T04:01:47.656Z,65.43
2017-06-24T04:02:13.756Z,65.33
2017-06-24T04:02:39.847Z,65.05
2017-06-24T04:03:05.951Z,65.33
2017-06-24T04:03:32.084Z,65.33
2017-06-24T04:03:58.173Z,65.17
2017-06-24T04:04:24.322Z,65.23
2017-06-24T04:04:50.430Z,65.14
2017-06-24T04:05:16.524Z,65.05
2017-06-24T04:05:42.622Z,65.23
2017-06-24T04:06:08.769Z,65.14
2017-06-24T04:06:34.873Z,65.14
2017-06-24T04:07:00.980Z,65.62
2017-06-24T04:07:27.070Z,65.23
2017-06-24T04:07:53.192Z,65.05
2017-06-24T04:08:19.297Z,65.14
2017-06-24T04:08:45.390Z,64.76
2017-06-24T04:09:11.488Z,65.05
2017-06-24T04:09:37.623Z,65.14
2017-06-24T04:10:03.794Z,65.62
2017-06-24T04:10:29.883Z,65.14
2017-06-24T04:10:56.342Z,65.53
2017-06-24T04:11:22.441Z,65.14
2017-06-24T04:11:48.544Z,65.43
2017-06-24T04:12:14.635Z,65.53
2017-06-24T04:12:40.741Z,65.53
2017-06-24T04:13:06.838Z,65.53
2017-06-24T04:13:32.932Z,65.91
2017-06-24T04:13:59.024Z,65.72
2017-06-24T04:14:25.132Z,65.14
2017-06-24T04:14:51.229Z,65.62
2017-06-24T04:15:17.319Z,64.95
2017-06-24T04:15:43.426Z,65.53
2017-06-24T04:16:09.553Z,65.05
2017-06-24T04:16:35.644Z,65.05
2017-06-24T04:17:01.770Z,65.14
2017-06-24T04:17:27.863Z,64.95
2017-06-24T04:17:53.970Z,65.14
2017-06-24T04:18:20.094Z,65.62
2017-06-24T04:18:46.186Z,66.1
2017-06-24T04:19:12.316Z,66.1
2017-06-24T04:19:38.416Z,65.81
2017-06-24T04:20:04.556Z,66.3
2017-06-24T04:20:30.657Z,66.3
2017-06-24T04:20:56.761Z,66.2
2017-06-24T04:21:22.848Z,66.2
2017-06-24T04:21:48.974Z,66.49
2017-06-24T04:22:15.080Z,66.58
2017-06-24T04:22:41.194Z,65.91
2017-06-24T04:23:07.351Z,65.81
2017-06-24T04:23:33.491Z,66.39
2017-06-24T04:23:59.622Z,66.39
2017-06-24T04:24:25.730Z,66.1
2017-06-24T04:24:51.817Z,66.2
2017-06-24T04:25:17.966Z,66.2
2017-06-24T04:25:44.101Z,66.3
2017-06-24T04:26:10.215Z,66.2
2017-06-24T04:26:36.336Z,66.1
2017-06-24T04:27:02.443Z,66.2
2017-06-24T04:27:28.537Z,66.1
2017-06-24T04:27:54.628Z,66.49
2017-06-24T04:28:20.739Z,66.77
2017-06-24T04:28:46.834Z,66.49
2017-06-24T04:29:12.948Z,66.68
2017-06-24T04:29:39.054Z,66.87
2017-06-24T04:30:05.155Z,66.87
2017-06-24T04:30:31.246Z,66.68
2017-06-24T04:30:57.372Z,66.39
2017-06-24T04:31:23.480Z,66.2
2017-06-24T04:31:49.567Z,66.77
2017-06-24T04:32:15.670Z,66.2
2017-06-24T04:32:41.775Z,66.1
2017-06-24T04:33:07.867Z,66.2
2017-06-24T04:33:33.964Z,66.1
2017-06-24T04:34:00.088Z,66.2
2017-06-24T04:34:26.191Z,66.2
2017-06-24T04:34:52.297Z,66.49
2017-06-24T04:35:18.383Z,66.87
2017-06-24T04:35:44.483Z,66.68
2017-06-24T04:36:10.688Z,66.68
2017-06-24T04:36:36.776Z,66.68
2017-06-24T04:37:02.921Z,66.39
2017-06-24T04:37:29.027Z,66.68
2017-06-24T04:37:55.123Z,66.68
2017-06-24T04:38:21.215Z,66.39
2017-06-24T04:38:47.350Z,66.58
2017-06-24T04:39:13.469Z,66.39
2017-06-24T04:39:39.572Z,66.68
2017-06-24T04:40:05.690Z,66.49
2017-06-24T04:40:31.787Z,66
2017-06-24T04:40:57.945Z,66.2
2017-06-24T04:41:24.061Z,66.39
2017-06-24T04:41:50.175Z,66.1
2017-06-24T04:42:16.285Z,66.2
2017-06-24T04:42:42.398Z,66.3
2017-06-24T04:43:08.523Z,66.2
2017-06-24T04:43:34.657Z,66.58
2017-06-24T04:44:00.785Z,66.3
2017-06-24T04:44:26.876Z,66.3
2017-06-24T04:44:52.978Z,66.39
2017-06-24T04:45:19.069Z,66.39
2017-06-24T04:45:45.177Z,66.3
2017-06-24T04:46:11.300Z,66.39
2017-06-24T04:46:37.439Z,66.2
2017-06-24T04:47:03.545Z,66.1
2017-06-24T04:47:29.647Z,66.1
2017-06-24T04:47:55.759Z,65.91
2017-06-24T04:48:21.860Z,65.17
2017-06-24T04:48:47.968Z,65.91
2017-06-24T04:49:14.079Z,66
2017-06-24T04:49:40.205Z,66.1
2017-06-24T04:50:06.310Z,66.39
2017-06-24T04:50:32.427Z,66.2
2017-06-24T04:50:58.556Z,66.3
2017-06-24T04:51:24.645Z,66.68
2017-06-24T04:51:50.778Z,66.97
2017-06-24T04:52:16.877Z,67.07
2017-06-24T04:52:42.989Z,66.87
2017-06-24T04:53:09.090Z,66.77
2017-06-24T04:53:35.196Z,67.16
2017-06-24T04:54:01.287Z,66.87
2017-06-24T04:54:27.384Z,66.68
2017-06-24T04:54:53.517Z,66.87
2017-06-24T04:55:19.639Z,66.58
2017-06-24T04:55:45.777Z,66.77
2017-06-24T04:56:11.881Z,66.58
2017-06-24T04:56:37.980Z,66.87
2017-06-24T04:57:04.089Z,66.39
2017-06-24T04:57:30.180Z,66.1
2017-06-24T04:57:56.276Z,66.14
2017-06-24T04:58:22.410Z,65.94
2017-06-24T04:58:48.531Z,65.81
2017-06-24T04:59:14.622Z,65.72
2017-06-24T04:59:40.731Z,65.62
2017-06-24T05:00:06.828Z,65.91
2017-06-24T05:00:32.920Z,66
2017-06-24T05:00:59.026Z,65.81
2017-06-24T05:01:25.154Z,65.91
2017-06-24T05:01:51.252Z,66.04
2017-06-24T05:02:17.372Z,65.84
2017-06-24T05:02:43.462Z,65.84
2017-06-24T05:03:09.572Z,65.17
2017-06-24T05:03:35.697Z,65.56
2017-06-24T05:04:01.789Z,65.08
2017-06-24T05:04:27.920Z,65.56
2017-06-24T05:04:54.018Z,65.46
2017-06-24T05:05:20.184Z,65.46
2017-06-24T05:05:46.285Z,65.84
2017-06-24T05:06:12.391Z,65.94
2017-06-24T05:06:38.478Z,66.39
2017-06-24T05:07:04.601Z,66.14
2017-06-24T05:07:30.694Z,66.39
2017-06-24T05:07:56.800Z,66.68
2017-06-24T05:08:22.900Z,66.2
2017-06-24T05:08:48.989Z,66.49
2017-06-24T05:09:15.092Z,66.87
2017-06-24T05:09:41.227Z,66.39
2017-06-24T05:10:07.314Z,66.23
2017-06-24T05:10:33.440Z,66.71
2017-06-24T05:10:59.574Z,66.23
2017-06-24T05:11:25.966Z,65.66
2017-06-24T05:11:52.062Z,65.75
2017-06-24T05:12:18.167Z,65.75
2017-06-24T05:12:44.261Z,66.14
2017-06-24T05:13:10.352Z,66.04
2017-06-24T05:13:36.485Z,66.52
2017-06-24T05:14:02.610Z,66.23
2017-06-24T05:14:28.724Z,66.52
2017-06-24T05:14:54.830Z,66.42
2017-06-24T05:15:20.928Z,66.42
2017-06-24T05:15:47.018Z,66.14
2017-06-24T05:16:13.150Z,66.04
2017-06-24T05:16:39.285Z,66.33
2017-06-24T05:17:05.371Z,65.75
2017-06-24T05:17:31.470Z,65.75
2017-06-24T05:17:57.575Z,65.84
2017-06-24T05:18:23.693Z,65.46
2017-06-24T05:18:49.795Z,65.37
2017-06-24T05:19:15.886Z,65.56
2017-06-24T05:19:42.029Z,65.46
2017-06-24T05:20:08.175Z,66.14
2017-06-24T05:20:34.286Z,65.84
2017-06-24T05:21:00.388Z,65.75
2017-06-24T05:21:26.493Z,65.94
2017-06-24T05:21:52.639Z,65.84
2017-06-24T05:22:18.733Z,66.23
2017-06-24T05:22:44.837Z,66.42
2017-06-24T05:23:10.934Z,66.58
2017-06-24T05:23:37.073Z,66.77
2017-06-24T05:24:03.175Z,66.77
2017-06-24T05:24:29.276Z,66.61
2017-06-24T05:24:55.385Z,66.39
2017-06-24T05:25:21.473Z,67
2017-06-24T05:25:47.594Z,66.87
2017-06-24T05:26:13.701Z,66.97
2017-06-24T05:26:39.824Z,66.97
2017-06-24T05:27:05.940Z,66.97
2017-06-24T05:27:32.052Z,67.07
2017-06-24T05:27:58.150Z,67.16
2017-06-24T05:28:24.241Z,67.25
2017-06-24T05:28:50.348Z,67.16
2017-06-24T05:29:16.476Z,67.25
2017-06-24T05:29:42.597Z,67.07
2017-06-24T05:30:08.690Z,67.45
2017-06-24T05:30:34.780Z,67.16
2017-06-24T05:31:00.919Z,67.25
2017-06-24T05:31:27.072Z,67.45
2017-06-24T05:31:53.161Z,67.25
2017-06-24T05:32:19.294Z,67.19
2017-06-24T05:32:45.394Z,67.25
2017-06-24T05:33:11.513Z,67.07
2017-06-24T05:33:37.612Z,67.35
2017-06-24T05:34:03.747Z,66.97
2017-06-24T05:34:29.863Z,67.45
2017-06-24T05:34:56.009Z,67.07
2017-06-24T05:35:22.079Z,66.87
2017-06-24T05:35:48.185Z,67.16
2017-06-24T05:36:14.285Z,67.25
2017-06-24T05:36:40.375Z,67
2017-06-24T05:37:06.503Z,66.71
2017-06-24T05:37:32.607Z,66.3
2017-06-24T05:37:58.695Z,67.35